ベルリン/テーゲル の空港の天気 - METARとTAF

ベルリン・テーゲル国際空港 ( EDDT / TXL ) - ドイツ ベルリン
飛行場実況気象(Metar)
観測時間12/17 01:20 CET (12/17 00:20 UTC)
風向・風速西 5m/s
視程10km以上
天気現象弱いしゅう雪 弱いしゅう雨
少しの雲 雲底高度 400m
全天の8割程度の雲 雲底高度 520m
気温3℃
湿度87%
気圧1011hPa
METAREDDT 170020Z 26010KT 9999 -SHSNRA FEW013 BKN017 03/01 Q1011
過去の天気等 Google飛行場航空写真 Wunderground天気予報

過去48時間のMETAR

飛行場予報(TAF)
発表時間: 12/17 00:00 CET (12/16 23:00 UTC)
予報対象時間: 17日1時 CET ~ 18日1時 CET
風向・風速西 4m/s
視程10km以上
全天の4割程度の雲 雲底高度 300m
全天の8割程度の雲 雲底高度 760m
17日1時 CET ~ 17日13時 CET に一時的に
視程3,500m
天気現象弱いしゅう雪
全天の8割程度の塔状積雲 雲底高度 240m
TAF EDDT 162300Z 1700/1724 28007KT 9999 SCT010 BKN025
TEMPO 1700/1712 3500 -SHSN BKN008TCU